Time;durP1;ratioP1;P1;durP2;ratioP2;P2;SDS_P1;SDS_P2;PMS_P1;PMS_P2;Temp;Humidity;BMP_temperature;BMP_pressure;BME280_temperature;BME280_humidity;BME280_pressure;Samples;Min_cycle;Max_cycle;Signal;HPM_P1;HPM_P2
2023/05/28 00:02:21;;;;;;;7.43;3.93;;;14.00;98.20;;;;;;5076336;28;20166;-80
2023/05/28 00:04:47;;;;;;;5.80;4.00;;;13.90;98.30;;;;;;5054168;28;20267;-79
2023/05/28 00:07:13;;;;;;;6.43;4.03;;;13.90;98.30;;;;;;5066553;28;20159;-80
2023/05/28 00:09:41;;;;;;;5.47;3.70;;;14.00;98.20;;;;;;5066492;28;20182;-80
2023/05/28 00:12:07;;;;;;;6.87;3.80;;;14.00;98.30;;;;;;5055322;28;20565;-80
2023/05/28 00:14:33;;;;;;;5.63;4.20;;;13.90;98.30;;;;;;5056486;28;20178;-82
2023/05/28 00:16:59;;;;;;;8.43;3.63;;;13.90;98.40;;;;;;5054820;28;20235;-82
2023/05/28 00:19:25;;;;;;;5.97;3.67;;;13.90;98.50;;;;;;5074131;28;20152;-83
2023/05/28 00:21:51;;;;;;;5.13;3.53;;;13.80;98.60;;;;;;5060946;28;20179;-81
2023/05/28 00:24:16;;;;;;;4.30;3.90;;;13.70;98.80;;;;;;5054668;28;20215;-81
2023/05/28 00:26:42;;;;;;;4.40;3.57;;;13.70;99.00;;;;;;5055818;28;20258;-82
2023/05/28 00:29:08;;;;;;;5.77;3.90;;;13.80;98.80;;;;;;5057333;28;20184;-81
2023/05/28 00:31:33;;;;;;;6.47;3.70;;;13.70;98.80;;;;;;5056666;28;20545;-82
2023/05/28 00:34:00;;;;;;;5.60;3.83;;;13.60;98.90;;;;;;5054170;28;20175;-81
2023/05/28 00:36:26;;;;;;;5.57;3.60;;;13.60;99.00;;;;;;5059641;28;20166;-80
2023/05/28 00:38:52;;;;;;;4.07;3.57;;;13.50;99.20;;;;;;5053868;28;20186;-81
2023/05/28 00:41:22;;;;;;;5.77;3.53;;;13.40;99.30;;;;;;5073970;28;20222;-81
2023/05/28 00:43:49;;;;;;;4.80;3.80;;;13.40;99.40;;;;;;5057552;28;20636;-80
2023/05/28 00:46:21;;;;;;;7.30;3.33;;;13.30;99.60;;;;;;5053153;28;20189;-81
2023/05/28 00:48:48;;;;;;;8.17;3.53;;;13.30;99.50;;;;;;5057411;28;20198;-82
2023/05/28 00:51:14;;;;;;;7.13;3.30;;;13.20;99.70;;;;;;5072200;28;20200;-81
2023/05/28 00:53:41;;;;;;;6.03;3.30;;;13.20;99.70;;;;;;5063689;28;20172;-81
2023/05/28 00:56:10;;;;;;;5.80;4.00;;;13.20;99.70;;;;;;5053943;28;20180;-80
2023/05/28 00:58:39;;;;;;;5.40;4.10;;;13.20;99.80;;;;;;5052862;28;20222;-81
2023/05/28 01:01:09;;;;;;;5.30;4.00;;;13.10;99.80;;;;;;5054096;28;20179;-81
2023/05/28 01:03:39;;;;;;;3.90;3.53;;;13.10;99.90;;;;;;5052372;28;20224;-80
2023/05/28 01:06:11;;;;;;;4.13;3.40;;;13.00;99.90;;;;;;5051585;28;20663;-82
2023/05/28 01:08:38;;;;;;;5.50;3.73;;;13.00;99.90;;;;;;5052370;28;20206;-80
2023/05/28 01:11:06;;;;;;;7.00;4.13;;;13.10;99.90;;;;;;5052271;28;20864;-81
2023/05/28 01:13:33;;;;;;;3.87;3.30;;;13.10;99.90;;;;;;5054343;28;20172;-83
2023/05/28 01:15:59;;;;;;;5.40;3.57;;;13.00;99.90;;;;;;5054426;28;20171;-82
2023/05/28 01:18:27;;;;;;;6.00;4.10;;;13.00;99.90;;;;;;5053078;28;20651;-81
2023/05/28 01:20:53;;;;;;;7.33;4.20;;;13.00;99.90;;;;;;5053813;28;20174;-81
2023/05/28 01:23:20;;;;;;;5.83;3.87;;;12.90;99.90;;;;;;5053383;28;20253;-80
2023/05/28 01:25:50;;;;;;;5.40;3.77;;;12.90;99.90;;;;;;5054525;28;20207;-81
2023/05/28 01:28:17;;;;;;;5.23;3.83;;;12.90;99.90;;;;;;5054847;28;20190;-82
2023/05/28 01:30:46;;;;;;;4.27;3.37;;;12.90;99.90;;;;;;5054759;28;20649;-81
2023/05/28 01:33:13;;;;;;;5.43;3.23;;;12.90;99.90;;;;;;5052675;28;20175;-81
2023/05/28 01:35:42;;;;;;;5.20;3.97;;;12.90;99.90;;;;;;5054319;28;20658;-81
2023/05/28 01:38:11;;;;;;;5.20;3.70;;;12.80;99.90;;;;;;5053258;28;20556;-82
2023/05/28 01:40:41;;;;;;;5.40;3.80;;;12.80;99.90;;;;;;5052751;28;20183;-80
2023/05/28 01:43:07;;;;;;;5.83;3.80;;;12.80;99.90;;;;;;5052049;28;20181;-81
2023/05/28 01:45:34;;;;;;;4.73;3.60;;;12.80;99.90;;;;;;5071561;28;20263;-81
2023/05/28 01:48:00;;;;;;;4.57;3.60;;;12.80;99.90;;;;;;5065848;28;20199;-81
2023/05/28 01:50:26;;;;;;;3.53;3.23;;;12.70;99.90;;;;;;5053450;28;20214;-80
2023/05/28 01:52:52;;;;;;;4.97;3.70;;;12.70;99.90;;;;;;5053423;28;20712;-81
2023/05/28 01:55:17;;;;;;;5.33;3.70;;;12.70;99.90;;;;;;5059300;28;20192;-82
2023/05/28 01:57:43;;;;;;;5.00;3.53;;;12.70;99.90;;;;;;5074127;28;20171;-81
2023/05/28 02:00:10;;;;;;;4.10;3.70;;;12.60;99.90;;;;;;5066259;28;20183;-79
2023/05/28 02:02:36;;;;;;;4.53;3.57;;;12.70;99.90;;;;;;5069152;28;20186;-80
2023/05/28 02:05:02;;;;;;;5.60;3.70;;;12.70;99.90;;;;;;5071415;28;20334;-80
2023/05/28 02:07:29;;;;;;;4.63;3.80;;;12.70;99.90;;;;;;5053008;28;20182;-80
2023/05/28 02:09:55;;;;;;;6.13;3.77;;;12.70;99.90;;;;;;5051880;28;20181;-81
2023/05/28 02:12:21;;;;;;;6.07;3.80;;;12.60;99.90;;;;;;5053563;28;20257;-81
2023/05/28 02:14:47;;;;;;;6.97;4.10;;;12.60;99.90;;;;;;5060788;28;20171;-82
2023/05/28 02:17:13;;;;;;;8.47;4.07;;;12.70;99.90;;;;;;5069061;28;20181;-85
2023/05/28 02:19:39;;;;;;;3.90;3.50;;;12.60;99.90;;;;;;5060441;28;20536;-80
2023/05/28 02:22:11;;;;;;;5.87;3.50;;;12.50;99.90;;;;;;5053152;28;20179;-79
2023/05/28 02:24:39;;;;;;;4.30;3.57;;;12.50;99.90;;;;;;5051713;28;20300;-80
2023/05/28 02:27:09;;;;;;;6.60;3.67;;;12.50;99.90;;;;;;5052884;28;20187;-81
2023/05/28 02:29:35;;;;;;;5.13;3.83;;;12.50;99.90;;;;;;5051588;28;20183;-82
2023/05/28 02:32:02;;;;;;;4.33;3.40;;;12.50;99.90;;;;;;5051517;28;20566;-80
2023/05/28 02:34:33;;;;;;;6.20;3.50;;;12.40;99.90;;;;;;5063280;28;20187;-81
2023/05/28 02:37:00;;;;;;;9.03;3.53;;;12.40;99.90;;;;;;5069863;28;20190;-81
2023/05/28 02:39:25;;;;;;;5.13;3.63;;;12.40;99.90;;;;;;5068837;28;20212;-80
2023/05/28 02:41:51;;;;;;;5.33;3.30;;;12.40;99.90;;;;;;5056774;28;20181;-80
2023/05/28 02:44:17;;;;;;;4.60;3.63;;;12.30;99.90;;;;;;5055479;28;20687;-81
2023/05/28 02:46:43;;;;;;;4.53;3.70;;;12.20;99.90;;;;;;5061415;28;20184;-80
2023/05/28 02:49:09;;;;;;;4.53;3.67;;;12.20;99.90;;;;;;5064482;28;20229;-80
2023/05/28 02:51:35;;;;;;;4.83;3.70;;;12.00;99.90;;;;;;5059585;28;20183;-82
2023/05/28 02:54:01;;;;;;;4.03;3.00;;;11.90;99.90;;;;;;5054801;28;20554;-81
2023/05/28 02:56:27;;;;;;;6.20;3.90;;;12.00;99.90;;;;;;5052160;28;20189;-81
2023/05/28 02:58:53;;;;;;;6.73;3.67;;;12.00;99.90;;;;;;5051340;28;20193;-80
2023/05/28 03:01:18;;;;;;;5.50;3.70;;;12.10;99.90;;;;;;5052923;28;20248;-81
2023/05/28 03:03:44;;;;;;;7.80;3.90;;;12.20;99.90;;;;;;5051214;28;20220;-82
2023/05/28 03:06:10;;;;;;;6.30;3.90;;;12.20;99.90;;;;;;5052392;28;20293;-81
2023/05/28 03:08:36;;;;;;;6.40;3.80;;;12.30;99.90;;;;;;5051448;28;20192;-81
2023/05/28 03:11:02;;;;;;;6.97;4.17;;;12.20;99.90;;;;;;5052608;28;20258;-80
2023/05/28 03:13:28;;;;;;;4.33;3.57;;;12.30;99.90;;;;;;5051867;28;20172;-81
2023/05/28 03:15:53;;;;;;;4.50;3.60;;;12.30;99.90;;;;;;5051854;28;20639;-82
2023/05/28 03:18:19;;;;;;;5.60;3.60;;;12.30;99.90;;;;;;5061433;28;20222;-81
2023/05/28 03:20:45;;;;;;;4.50;3.83;;;12.30;99.90;;;;;;5056305;28;20176;-82
2023/05/28 03:23:11;;;;;;;5.23;3.40;;;12.40;99.90;;;;;;5071504;28;20190;-81
2023/05/28 03:25:36;;;;;;;7.07;3.83;;;12.40;99.90;;;;;;5054708;28;20616;-82
2023/05/28 03:28:02;;;;;;;4.20;3.40;;;12.50;99.90;;;;;;5054493;28;20890;-82
2023/05/28 03:30:28;;;;;;;7.00;3.90;;;12.50;99.90;;;;;;5055462;28;20238;-80
2023/05/28 03:32:53;;;;;;;6.57;3.83;;;12.40;99.90;;;;;;5063468;28;20165;-83
2023/05/28 03:35:19;;;;;;;7.23;4.60;;;12.40;99.90;;;;;;5073438;28;20209;-80
2023/05/28 03:37:45;;;;;;;6.80;3.90;;;12.40;99.90;;;;;;5055910;28;20525;-81
2023/05/28 03:40:11;;;;;;;9.53;4.30;;;12.30;99.90;;;;;;5055255;28;20183;-81
2023/05/28 03:42:39;;;;;;;5.40;3.90;;;12.30;99.90;;;;;;5056611;28;20646;-80
2023/05/28 03:45:06;;;;;;;6.23;3.60;;;12.30;99.90;;;;;;5056800;28;20205;-80
2023/05/28 03:47:32;;;;;;;6.13;4.07;;;12.30;99.90;;;;;;5055401;28;20175;-80
2023/05/28 03:49:59;;;;;;;5.67;3.60;;;12.40;99.90;;;;;;5056163;28;20183;-80
2023/05/28 03:52:25;;;;;;;8.97;3.80;;;12.40;99.90;;;;;;5054816;28;20185;-80
2023/05/28 03:54:51;;;;;;;4.83;3.77;;;12.40;99.90;;;;;;5056266;28;20177;-80
2023/05/28 03:57:17;;;;;;;6.37;3.80;;;12.40;99.90;;;;;;5073829;28;20187;-80
2023/05/28 03:59:42;;;;;;;6.83;4.13;;;12.40;99.90;;;;;;5078428;28;20181;-79
2023/05/28 04:02:08;;;;;;;4.83;3.87;;;12.40;99.90;;;;;;5065426;28;20183;-79
2023/05/28 04:04:34;;;;;;;4.57;3.43;;;12.40;99.90;;;;;;5069967;28;20277;-81
2023/05/28 04:07:00;;;;;;;8.53;3.73;;;12.40;99.90;;;;;;5077656;28;20597;-80
2023/05/28 04:09:27;;;;;;;6.17;3.50;;;12.40;99.90;;;;;;5075731;28;20179;-80
2023/05/28 04:11:53;;;;;;;9.00;3.70;;;12.40;99.90;;;;;;5076501;28;20168;-81
2023/05/28 04:14:19;;;;;;;8.57;3.97;;;12.40;99.90;;;;;;5058965;28;20182;-81
2023/05/28 04:16:44;;;;;;;6.07;4.03;;;12.40;99.90;;;;;;5077680;28;20204;-81
2023/05/28 04:19:10;;;;;;;4.80;4.20;;;12.50;99.90;;;;;;5083667;28;20174;-82
2023/05/28 04:21:36;;;;;;;7.03;3.87;;;12.50;99.90;;;;;;5075970;28;20172;-81
2023/05/28 04:24:03;;;;;;;6.37;3.90;;;12.60;99.90;;;;;;5056836;28;20175;-81
2023/05/28 04:26:29;;;;;;;5.80;3.50;;;12.60;99.90;;;;;;5056482;28;20197;-82
2023/05/28 04:28:55;;;;;;;5.50;4.27;;;12.60;99.90;;;;;;5056500;28;20194;-80
2023/05/28 04:31:21;;;;;;;5.87;3.67;;;12.60;99.90;;;;;;5076112;28;20173;-81
2023/05/28 04:33:47;;;;;;;5.63;3.60;;;12.70;99.90;;;;;;5076219;28;20167;-81
2023/05/28 04:36:13;;;;;;;4.17;3.73;;;12.70;99.90;;;;;;5058147;28;20174;-82
2023/05/28 04:38:39;;;;;;;7.57;3.67;;;12.80;99.90;;;;;;5059785;28;20290;-81
2023/05/28 04:41:05;;;;;;;7.23;4.30;;;12.80;99.90;;;;;;5074624;28;20640;-82
2023/05/28 04:43:32;;;;;;;5.60;3.47;;;13.00;99.90;;;;;;5085146;28;20199;-82
2023/05/28 04:45:59;;;;;;;6.57;4.37;;;13.00;99.90;;;;;;5060869;28;20210;-82
2023/05/28 04:48:25;;;;;;;7.40;4.17;;;13.10;99.90;;;;;;5059296;28;20196;-80
2023/05/28 04:50:51;;;;;;;4.10;3.73;;;13.10;99.90;;;;;;5057864;28;20272;-82
2023/05/28 04:53:17;;;;;;;8.10;3.90;;;13.30;99.90;;;;;;5075485;28;20177;-80
2023/05/28 04:55:44;;;;;;;5.47;3.57;;;13.30;99.90;;;;;;5056659;28;20521;-80
2023/05/28 04:58:10;;;;;;;7.13;4.20;;;13.40;99.90;;;;;;5056872;28;20281;-81
2023/05/28 05:00:36;;;;;;;8.67;4.70;;;13.40;99.90;;;;;;5089753;28;20822;-81
2023/05/28 05:03:03;;;;;;;5.97;3.80;;;13.50;99.90;;;;;;5077480;28;20177;-81
2023/05/28 05:05:30;;;;;;;6.30;4.07;;;13.60;99.90;;;;;;5058476;28;20218;-81
2023/05/28 05:07:56;;;;;;;10.37;4.20;;;13.60;99.90;;;;;;5077352;28;20246;-81
2023/05/28 05:10:22;;;;;;;4.93;3.83;;;13.70;99.90;;;;;;5073101;28;20209;-82
2023/05/28 05:12:49;;;;;;;4.13;3.50;;;13.80;99.90;;;;;;5067750;28;20171;-82
2023/05/28 05:15:15;;;;;;;4.90;3.40;;;13.90;99.90;;;;;;5064443;28;20175;-82
2023/05/28 05:17:41;;;;;;;5.60;3.90;;;13.90;99.80;;;;;;5063773;28;20179;-80
2023/05/28 05:20:08;;;;;;;5.63;3.43;;;14.10;99.60;;;;;;5075635;28;20167;-80
2023/05/28 05:22:34;;;;;;;4.00;3.57;;;14.10;99.50;;;;;;5057699;28;20167;-81
2023/05/28 05:25:00;;;;;;;5.77;3.90;;;14.10;99.20;;;;;;5073647;28;20293;-80
2023/05/28 05:27:25;;;;;;;3.33;3.03;;;14.10;99.20;;;;;;5073863;28;20175;-80
2023/05/28 05:29:51;;;;;;;6.43;3.97;;;14.30;99.10;;;;;;5074305;28;20631;-80
2023/05/28 05:32:17;;;;;;;5.10;3.90;;;14.30;99.00;;;;;;5057502;28;20175;-80
2023/05/28 05:34:43;;;;;;;6.20;3.63;;;14.40;99.00;;;;;;5076546;28;20308;-80
2023/05/28 05:37:08;;;;;;;4.43;3.83;;;14.50;98.60;;;;;;5056321;28;20183;-81
2023/05/28 05:39:34;;;;;;;4.47;3.47;;;14.60;98.40;;;;;;5074654;28;20221;-80
2023/05/28 05:42:01;;;;;;;3.87;3.50;;;14.70;98.30;;;;;;5073663;28;20178;-80
2023/05/28 05:44:27;;;;;;;5.60;3.40;;;14.80;98.10;;;;;;5055419;28;20325;-79
2023/05/28 05:46:52;;;;;;;4.00;3.50;;;14.80;97.90;;;;;;5058258;28;20199;-80
2023/05/28 05:49:19;;;;;;;4.27;3.63;;;15.00;98.00;;;;;;5066384;28;20195;-80
2023/05/28 05:51:44;;;;;;;3.60;3.30;;;15.10;97.90;;;;;;5075333;28;20168;-83
2023/05/28 05:54:10;;;;;;;3.67;3.30;;;15.40;97.90;;;;;;5091815;28;20179;-81
2023/05/28 05:56:37;;;;;;;5.60;3.97;;;15.40;98.10;;;;;;5071379;28;20627;-80
2023/05/28 05:59:03;;;;;;;4.73;3.43;;;15.50;97.80;;;;;;5060021;28;20182;-82
2023/05/28 06:01:29;;;;;;;5.50;3.80;;;15.60;97.60;;;;;;5063860;28;20179;-81
2023/05/28 06:03:56;;;;;;;3.67;3.33;;;15.60;97.50;;;;;;5075665;28;20215;-80
2023/05/28 06:06:24;;;;;;;4.30;3.70;;;15.60;97.50;;;;;;5073549;28;20184;-81
2023/05/28 06:08:50;;;;;;;4.33;3.77;;;15.60;97.10;;;;;;5055437;28;20175;-80
2023/05/28 06:11:16;;;;;;;7.00;3.87;;;15.70;97.30;;;;;;5056337;28;20229;-80
2023/05/28 06:13:41;;;;;;;3.93;3.50;;;15.80;97.10;;;;;;5055021;28;20224;-81
2023/05/28 06:16:07;;;;;;;4.73;3.10;;;15.80;96.80;;;;;;5072912;28;20228;-82
2023/05/28 06:18:33;;;;;;;4.10;3.70;;;16.00;96.80;;;;;;5054688;28;20181;-81
2023/05/28 06:20:59;;;;;;;3.20;2.97;;;16.20;96.60;;;;;;5073382;28;20175;-79
2023/05/28 06:23:25;;;;;;;4.20;3.10;;;16.20;96.30;;;;;;5055677;28;20179;-82
2023/05/28 06:25:51;;;;;;;3.70;3.40;;;16.40;95.80;;;;;;5069514;28;20210;-81
2023/05/28 06:28:16;;;;;;;7.13;3.73;;;16.50;95.60;;;;;;5062972;28;20181;-80
2023/05/28 06:30:42;;;;;;;4.77;3.60;;;16.60;95.40;;;;;;5073499;28;20177;-80
2023/05/28 06:33:09;;;;;;;5.30;3.23;;;16.70;95.50;;;;;;5055041;28;20212;-82
2023/05/28 06:35:35;;;;;;;5.10;3.83;;;16.90;95.50;;;;;;5057725;28;20179;-81
2023/05/28 06:38:01;;;;;;;5.40;4.10;;;17.00;95.50;;;;;;5069897;28;20199;-81
2023/05/28 06:40:27;;;;;;;7.80;4.00;;;17.20;95.60;;;;;;5090035;28;20198;-82
2023/05/28 06:42:53;;;;;;;4.57;3.40;;;17.40;95.40;;;;;;5079883;28;20192;-80
2023/05/28 06:45:18;;;;;;;4.53;3.60;;;17.30;95.40;;;;;;5055103;28;20229;-80
2023/05/28 06:47:46;;;;;;;4.40;3.73;;;17.30;95.50;;;;;;5073318;28;20629;-79
2023/05/28 06:50:11;;;;;;;4.10;3.70;;;17.40;95.50;;;;;;5072723;28;20704;-79
2023/05/28 06:52:37;;;;;;;7.50;4.30;;;17.50;95.60;;;;;;5078662;28;20204;-80
2023/05/28 06:55:05;;;;;;;6.37;3.73;;;17.60;95.60;;;;;;5073787;28;20216;-81
2023/05/28 06:57:32;;;;;;;6.10;4.63;;;17.60;95.50;;;;;;5056246;28;20182;-80
2023/05/28 06:59:58;;;;;;;9.00;4.30;;;17.70;95.40;;;;;;5054920;28;20216;-79
2023/05/28 07:02:25;;;;;;;7.40;5.17;;;17.70;95.70;;;;;;5075009;28;20180;-83
2023/05/28 07:04:51;;;;;;;6.07;4.57;;;17.90;95.40;;;;;;5076603;28;20234;-83
2023/05/28 07:07:17;;;;;;;7.33;4.30;;;18.00;95.60;;;;;;5078354;28;20261;-81
2023/05/28 07:09:43;;;;;;;7.60;3.83;;;18.10;95.50;;;;;;5077611;28;20185;-81
2023/05/28 07:12:08;;;;;;;5.77;4.17;;;18.20;95.30;;;;;;5076693;28;20258;-80
2023/05/28 07:14:35;;;;;;;7.90;4.23;;;18.20;95.80;;;;;;5066839;28;20179;-78
2023/05/28 07:17:00;;;;;;;4.13;3.73;;;18.20;95.50;;;;;;5078337;28;20182;-81
2023/05/28 07:19:26;;;;;;;4.47;3.77;;;18.20;95.40;;;;;;5076913;28;20167;-79
2023/05/28 07:21:52;;;;;;;6.03;4.03;;;18.20;95.40;;;;;;5076271;28;20171;-80
2023/05/28 07:24:18;;;;;;;7.23;3.70;;;18.40;95.70;;;;;;5058369;28;20175;-81
2023/05/28 07:26:44;;;;;;;4.87;3.93;;;18.40;95.30;;;;;;5077110;28;20179;-82
2023/05/28 07:29:13;;;;;;;5.13;3.80;;;18.40;95.10;;;;;;5076066;28;20175;-80
2023/05/28 07:31:39;;;;;;;4.10;3.50;;;18.60;95.20;;;;;;5058391;28;20611;-80
2023/05/28 07:34:05;;;;;;;5.57;4.07;;;18.50;94.60;;;;;;5076161;28;20203;-81
2023/05/28 07:36:31;;;;;;;4.73;3.47;;;18.40;94.10;;;;;;5058074;28;20175;-79
2023/05/28 07:38:57;;;;;;;8.23;3.23;;;18.40;93.20;;;;;;5058418;28;20190;-81
2023/05/28 07:41:23;;;;;;;9.03;6.87;;;18.30;92.20;;;;;;5076492;28;20179;-82
2023/05/28 07:43:49;;;;;;;5.60;3.43;;;18.30;92.40;;;;;;5082562;28;20266;-80
2023/05/28 07:46:16;;;;;;;4.50;3.57;;;18.40;92.50;;;;;;5099588;28;20195;-82
2023/05/28 07:48:43;;;;;;;8.17;6.50;;;18.60;92.80;;;;;;5096083;28;20171;-83
2023/05/28 07:51:10;;;;;;;4.97;4.13;;;18.70;93.70;;;;;;5060864;28;20642;-81
2023/05/28 07:53:36;;;;;;;3.70;3.40;;;18.80;93.90;;;;;;5078043;28;20181;-84
2023/05/28 07:56:02;;;;;;;4.13;3.37;;;19.00;93.40;;;;;;5057933;28;20247;-83
2023/05/28 07:58:28;;;;;;;8.23;3.57;;;19.10;91.80;;;;;;5057601;28;20396;-83
2023/05/28 08:00:54;;;;;;;4.23;3.47;;;19.20;92.90;;;;;;5057541;28;20598;-83
2023/05/28 08:03:19;;;;;;;4.33;3.73;;;19.20;93.10;;;;;;5075652;28;20723;-82
2023/05/28 08:05:45;;;;;;;5.40;3.70;;;19.30;92.00;;;;;;5056959;28;20745;-81
2023/05/28 08:08:11;;;;;;;5.47;3.30;;;19.30;92.30;;;;;;5057817;28;20202;-80
2023/05/28 08:10:37;;;;;;;4.30;3.70;;;19.40;91.90;;;;;;5076448;28;20171;-80
2023/05/28 08:13:02;;;;;;;3.97;3.17;;;19.40;92.80;;;;;;5058457;28;20182;-81
2023/05/28 08:15:28;;;;;;;3.80;3.47;;;19.50;91.40;;;;;;5082634;28;20216;-82
2023/05/28 08:17:54;;;;;;;4.60;3.50;;;19.50;91.50;;;;;;5070414;28;20202;-83
2023/05/28 08:20:22;;;;;;;5.03;3.90;;;19.50;91.60;;;;;;5060966;28;20266;-83
2023/05/28 08:22:48;;;;;;;3.97;3.60;;;19.40;91.10;;;;;;5058397;28;20183;-79
2023/05/28 08:25:14;;;;;;;4.57;3.67;;;19.10;91.20;;;;;;5058046;28;20215;-82
2023/05/28 08:27:40;;;;;;;4.90;3.07;;;18.90;90.50;;;;;;5068067;28;20225;-81
2023/05/28 08:30:06;;;;;;;6.07;3.30;;;18.90;90.60;;;;;;5081317;28;20182;-79
2023/05/28 08:32:32;;;;;;;5.43;3.60;;;19.00;90.90;;;;;;5085935;28;20171;-81
2023/05/28 08:34:58;;;;;;;6.17;3.57;;;19.10;91.10;;;;;;5078347;28;20182;-80
2023/05/28 08:37:24;;;;;;;4.57;3.30;;;19.20;90.40;;;;;;5086873;28;20171;-81
2023/05/28 08:39:49;;;;;;;3.23;3.03;;;19.10;90.90;;;;;;5084529;28;20175;-78
2023/05/28 08:42:15;;;;;;;4.43;2.87;;;19.10;90.90;;;;;;5075635;28;20167;-78
2023/05/28 08:44:41;;;;;;;5.37;3.60;;;19.20;91.10;;;;;;5058480;28;20293;-83
2023/05/28 08:47:08;;;;;;;4.70;3.37;;;19.20;91.50;;;;;;5075536;28;20167;-83
2023/05/28 08:49:50;;;;;;;3.60;3.30;;;19.40;92.10;;;;;;5076215;28;20258;-79
2023/05/28 08:52:20;;;;;;;5.23;3.60;;;19.60;92.30;;;;;;5074331;28;20195;-81
2023/05/28 08:54:47;;;;;;;4.93;3.57;;;19.70;91.00;;;;;;5073649;28;20167;-79
2023/05/28 08:57:14;;;;;;;6.20;3.30;;;19.60;91.20;;;;;;5074056;28;20472;-77
2023/05/28 08:59:40;;;;;;;5.47;3.80;;;19.80;91.40;;;;;;5073430;28;20198;-78
2023/05/28 09:02:07;;;;;;;5.63;3.53;;;19.80;91.50;;;;;;5073471;28;20551;-80
2023/05/28 09:04:33;;;;;;;4.03;3.57;;;19.70;91.40;;;;;;5073650;28;20219;-79
2023/05/28 09:06:59;;;;;;;5.27;3.37;;;19.60;91.40;;;;;;5074544;28;20225;-78
2023/05/28 09:09:26;;;;;;;4.03;3.30;;;19.60;91.20;;;;;;5074062;28;20214;-79
2023/05/28 09:12:03;;;;;;;4.13;3.40;;;19.80;91.30;;;;;;5074039;28;20180;-77
2023/05/28 09:14:29;;;;;;;3.70;3.40;;;19.90;91.90;;;;;;5073787;28;20171;-78
2023/05/28 09:16:54;;;;;;;6.03;3.53;;;20.20;91.60;;;;;;5073827;28;20175;-79
2023/05/28 09:19:20;;;;;;;7.10;4.03;;;20.20;91.10;;;;;;5074598;28;20631;-78
2023/05/28 09:21:57;;;;;;;5.20;3.50;;;20.30;91.50;;;;;;5074820;28;20171;-79
2023/05/28 09:24:26;;;;;;;3.67;3.37;;;20.40;91.00;;;;;;5073236;28;20259;-81
2023/05/28 09:26:56;;;;;;;4.57;3.80;;;20.10;91.20;;;;;;5072938;28;20266;-80
2023/05/28 09:29:26;;;;;;;4.47;3.27;;;20.10;91.40;;;;;;5073610;28;20202;-79
2023/05/28 09:31:56;;;;;;;6.67;3.23;;;20.20;91.70;;;;;;5073588;28;20229;-79
2023/05/28 09:34:27;;;;;;;4.73;3.70;;;20.20;92.20;;;;;;5073637;28;20163;-80
2023/05/28 09:36:54;;;;;;;6.57;3.90;;;20.20;91.40;;;;;;5057614;28;20183;-81
2023/05/28 09:39:25;;;;;;;4.63;3.23;;;20.30;91.50;;;;;;5087766;28;20183;-82
2023/05/28 09:42:06;;;;;;;8.10;5.73;;;20.50;91.80;;;;;;5076877;28;20175;-80
2023/05/28 09:44:33;;;;;;;4.73;3.60;;;20.70;91.70;;;;;;5089005;28;20212;-81
2023/05/28 09:46:59;;;;;;;7.00;4.10;;;20.90;91.60;;;;;;5077001;28;20213;-82
2023/05/28 09:49:28;;;;;;;6.67;3.73;;;21.00;91.60;;;;;;5080198;28;20210;-79
2023/05/28 09:51:57;;;;;;;5.87;3.23;;;21.20;90.60;;;;;;5080403;28;20183;-80
2023/05/28 09:54:28;;;;;;;4.77;3.67;;;21.20;89.00;;;;;;5094051;28;20253;-79
2023/05/28 09:56:57;;;;;;;7.50;3.80;;;21.30;90.10;;;;;;5075002;28;20171;-78
2023/05/28 09:59:25;;;;;;;4.47;4.07;;;21.30;90.00;;;;;;5073755;28;20248;-80
2023/05/28 10:02:22;;;;;;;5.43;4.00;;;21.30;88.40;;;;;;5055183;28;20175;-80
2023/05/28 10:04:54;;;;;;;4.43;3.37;;;21.30;89.60;;;;;;5083460;28;20240;-80
2023/05/28 10:07:22;;;;;;;5.63;3.40;;;21.40;90.10;;;;;;5088713;28;20628;-81
2023/05/28 10:09:50;;;;;;;6.60;3.93;;;21.20;90.40;;;;;;5075308;28;20175;-84
2023/05/28 10:12:21;;;;;;;4.03;3.40;;;21.30;90.40;;;;;;5073144;28;20166;-79
2023/05/28 10:14:48;;;;;;;5.50;3.47;;;21.40;90.40;;;;;;5055407;28;20201;-80
2023/05/28 10:17:15;;;;;;;3.73;3.23;;;21.40;90.60;;;;;;5073295;28;20190;-81
2023/05/28 10:19:43;;;;;;;3.13;2.93;;;21.50;89.30;;;;;;5073070;28;20225;-79
2023/05/28 10:22:08;;;;;;;4.93;3.47;;;21.60;90.50;;;;;;5073299;28;20175;-80
2023/05/28 10:24:35;;;;;;;4.90;3.10;;;21.80;90.70;;;;;;5073180;28;20565;-80
2023/05/28 10:27:06;;;;;;;6.27;4.00;;;21.80;89.10;;;;;;5072883;28;20186;-80
2023/05/28 10:29:41;;;;;;;4.23;3.27;;;21.90;90.90;;;;;;5072877;28;20166;-78
2023/05/28 10:32:07;;;;;;;6.03;3.90;;;21.90;91.40;;;;;;5072866;28;20603;-79
2023/05/28 10:34:35;;;;;;;4.43;3.73;;;21.90;89.60;;;;;;5081568;28;20170;-78
2023/05/28 10:37:10;;;;;;;7.00;3.60;;;21.80;89.50;;;;;;5085475;28;20634;-78
2023/05/28 10:39:41;;;;;;;6.23;3.50;;;21.80;90.30;;;;;;5076155;28;20212;-78
2023/05/28 10:42:08;;;;;;;3.43;3.13;;;21.70;88.60;;;;;;5076022;28;20550;-80
2023/05/28 10:44:50;;;;;;;6.13;3.83;;;21.60;87.90;;;;;;5075644;28;20195;-79
2023/05/28 10:47:19;;;;;;;4.53;3.70;;;21.60;89.60;;;;;;5076395;28;20224;-78
2023/05/28 10:50:17;;;;;;;6.23;3.43;;;21.80;89.80;;;;;;5076134;28;20251;-77
2023/05/28 10:52:43;;;;;;;6.50;3.73;;;21.90;89.70;;;;;;5057688;28;20167;-79
2023/05/28 10:55:12;;;;;;;3.90;3.10;;;21.80;88.10;;;;;;5076130;28;20250;-79
2023/05/28 10:57:44;;;;;;;5.93;3.80;;;21.70;89.40;;;;;;5077344;28;20233;-78
2023/05/28 11:00:21;;;;;;;3.80;3.50;;;21.80;88.70;;;;;;5076185;28;20658;-77
2023/05/28 11:02:51;;;;;;;5.27;3.70;;;22.00;90.00;;;;;;5076188;28;20166;-80
2023/05/28 11:05:22;;;;;;;4.23;3.70;;;22.20;90.40;;;;;;5075923;28;20229;-80
2023/05/28 11:07:48;;;;;;;4.23;3.30;;;22.30;89.90;;;;;;5076472;28;20849;-80
2023/05/28 11:10:17;;;;;;;4.97;3.50;;;22.40;89.00;;;;;;5076338;28;20171;-78
2023/05/28 11:12:45;;;;;;;4.03;3.33;;;22.40;89.30;;;;;;5077714;28;20179;-78
2023/05/28 11:15:12;;;;;;;4.30;3.43;;;22.20;86.40;;;;;;5079308;28;20535;-82
2023/05/28 11:17:43;;;;;;;5.50;4.10;;;22.20;88.50;;;;;;5079640;28;20183;-82
2023/05/28 11:20:27;;;;;;;4.87;3.50;;;22.10;87.40;;;;;;5076322;28;20202;-79
2023/05/28 11:22:53;;;;;;;3.13;2.93;;;22.10;87.30;;;;;;5076882;28;20166;-80
2023/05/28 11:25:25;;;;;;;4.83;3.63;;;22.10;87.90;;;;;;5076447;28;20257;-80
2023/05/28 11:27:52;;;;;;;4.83;3.53;;;21.90;86.90;;;;;;5076477;28;20160;-83
2023/05/28 11:30:18;;;;;;;7.83;3.83;;;21.90;85.60;;;;;;5093418;28;20206;-79
2023/05/28 11:32:47;;;;;;;6.63;4.40;;;21.90;86.90;;;;;;5072154;28;20187;-78
2023/05/28 11:35:16;;;;;;;4.00;3.50;;;22.00;88.20;;;;;;5075220;28;20175;-82
2023/05/28 11:37:43;;;;;;;5.67;4.10;;;22.00;87.90;;;;;;5079504;28;20227;-80
2023/05/28 11:40:11;;;;;;;4.20;3.10;;;22.00;86.90;;;;;;5085222;28;20179;-79
2023/05/28 11:42:41;;;;;;;4.70;3.60;;;22.10;92.30;;;;;;5095174;28;20155;-79
2023/05/28 11:45:08;;;;;;;4.70;4.30;;;22.30;92.80;;;;;;5086523;28;20257;-81
2023/05/28 11:47:35;;;;;;;5.97;3.73;;;22.40;94.00;;;;;;5082340;28;20178;-78
2023/05/28 11:50:09;;;;;;;5.30;4.80;;;22.40;90.10;;;;;;5075019;28;20548;-78
2023/05/28 11:52:35;;;;;;;5.93;4.60;;;22.50;89.10;;;;;;5075199;28;20194;-79
2023/05/28 11:55:01;;;;;;;6.10;3.30;;;22.40;90.80;;;;;;5076153;28;20197;-80
2023/05/28 11:57:33;;;;;;;3.50;3.20;;;22.50;92.10;;;;;;5075750;28;20182;-78
2023/05/28 12:00:01;;;;;;;5.17;4.23;;;22.60;91.20;;;;;;5075510;28;20248;-77
2023/05/28 12:02:27;;;;;;;5.87;4.33;;;22.70;91.30;;;;;;5074843;28;20194;-79
2023/05/28 12:04:56;;;;;;;5.97;4.00;;;22.70;90.40;;;;;;5074559;28;20695;-77
2023/05/28 12:07:27;;;;;;;8.02;4.75;;;22.70;90.30;;;;;;5075684;28;20201;-79
2023/05/28 12:10:08;;;;;;;5.72;4.47;;;22.70;90.50;;;;;;5074591;28;20738;-80
2023/05/28 12:12:39;;;;;;;7.20;5.57;;;22.80;89.90;;;;;;5076165;28;20163;-76
2023/05/28 12:15:06;;;;;;;4.07;3.77;;;22.80;91.00;;;;;;5075652;28;20254;-80
2023/05/28 12:17:39;;;;;;;4.87;3.90;;;22.90;90.90;;;;;;5075558;28;20638;-79
2023/05/28 12:20:16;;;;;;;6.00;3.90;;;22.80;90.70;;;;;;5075774;28;20192;-78
2023/05/28 12:22:43;;;;;;;6.47;4.30;;;22.70;91.10;;;;;;5080237;28;20264;-76
2023/05/28 12:25:09;;;;;;;4.97;4.33;;;22.80;90.00;;;;;;5087864;28;20211;-78
2023/05/28 12:27:36;;;;;;;10.60;8.43;;;22.80;89.30;;;;;;5085405;28;20186;-77
2023/05/28 12:30:03;;;;;;;8.73;5.63;;;22.90;88.70;;;;;;5077595;28;20182;-75
2023/05/28 12:32:29;;;;;;;8.13;6.47;;;22.90;88.40;;;;;;5081271;28;20176;-76
2023/05/28 12:34:58;;;;;;;7.50;4.17;;;22.80;87.80;;;;;;5080490;28;20175;-76
2023/05/28 12:37:24;;;;;;;4.83;4.00;;;22.80;89.00;;;;;;5057605;28;20179;-76
2023/05/28 12:39:51;;;;;;;5.90;3.80;;;22.90;89.90;;;;;;5075628;28;20179;-76
2023/05/28 12:42:17;;;;;;;5.13;3.90;;;22.80;90.30;;;;;;5075579;28;20285;-77
2023/05/28 12:44:43;;;;;;;4.07;3.50;;;22.70;87.70;;;;;;5074297;28;20207;-77
2023/05/28 12:47:09;;;;;;;5.47;3.90;;;22.70;84.90;;;;;;5074092;28;20241;-76
2023/05/28 12:49:35;;;;;;;4.83;3.70;;;22.70;89.30;;;;;;5073812;28;20631;-77